All Spectrum Aviation - Van Nuys Airport - KVNY

HOME

Condor Squadron KVNY Webcam

Visit our Electronics Store

Condor Squadron Webcam - Van Nuys Airport - KVNY
Picture taken: Sun, 18 Apr 2021 00:56:41 -0700
YouTube Channel!    Latest Timelapse Movie    Full Size Image    Regular Size Image    

2021/04/18 06:51 KVNY 180651Z AUTO 00000KT 10SM CLR 19/07 A2997 RMK AO2 SLP142 T01890067

HOME

Condor Squadron KVNY Webcam

Visit our Electronics Store